Arivat, Canada
Current Conditions -  °F | °C
As of 2:00 PM on Wednesday 17 Dec 2014 (Local Time) from CYEK Reporting Station
Clear Clear  
Wind Chill: -19°   Ceiling: Unl
Heat Index: -2°   Visibility: 15mi
Dew Point: -6°   Wind: 10mph
Humidity: 85%   Direction: 240°WSW
Pressure: 29.92"   Gusts: NA
Location:  61.11°N, 94.06°W
Report Text: CYEK 171900Z 24009KT 15SM SKC M19/M21 A2992 RMK TR CI SLP135
Loading
Personal Weather Stations






























Interactive Weather Map New forecast layout! Learn more

10-Day Weather Forecast

Advertisements
Track Severe Weather on mobile